Teddy Meyer — WDF9635 — position and weather

sailwx.info

Track history (hours):
 
Tides and Currents Weather Stations Pressure Air Temp Water Temp Dewpoint Dewpoint Depression Visibility Wind Speed Wind Dir Waves Ship Positions

Teddy Meyer

Owner: LeBeouf Bros. Towing, LLC, Houma, LA. More information available from US FCC via Universal Licensing System and Coast Guard Vessel Documentation Center.

Last reported at 2016-Dec-09 20:33 UTC. Time now 2016-Dec-09 21:20 UTC.
Position N 29°42' W 095°03'.

; draft 3 m.

MMSI: 367507220.

Date/timePositionNaut miles runAvg speedWind from/ knotsBaromVisibWave heightAir tempDewpointWater temp
2016-Dec-09 20:33N 29°42' W 095°03'0 0.0
2016-Dec-09 19:33N 29°42' W 095°03'0 0.1
2016-Dec-09 18:33N 29°42' W 095°03'0 0.1
2016-Dec-09 17:34N 29°42' W 095°03'0 0.0
2016-Dec-09 16:33N 29°42' W 095°03'0 0.0
2016-Dec-09 15:33N 29°42' W 095°03'0 0.0
2016-Dec-09 14:33N 29°42' W 095°03'0 0.0
2016-Dec-09 13:33N 29°42' W 095°03'0 0.0
2016-Dec-09 12:33N 29°42' W 095°03'0 0.0
2016-Dec-09 11:32N 29°42' W 095°03'0 0.1
2016-Dec-09 10:30N 29°43' W 095°03'1 1.4
2016-Dec-09 09:32N 29°43' W 095°01'5 0.5
2016-Dec-08 22:32N 29°45' W 095°06'5 5.3
2016-Dec-08 21:33N 29°42' W 095°01'1 1.5
2016-Dec-08 20:33N 29°42' W 095°03'0 0.0
2016-Dec-08 17:25N 29°42' W 095°03'1 0.1
2016-Dec-07 21:33N 29°43' W 095°01'5 2.3
2016-Dec-07 19:30N 29°45' W 095°06'0 0.4
2016-Dec-07 18:34N 29°45' W 095°07'2 1.2
2016-Dec-07 17:05N 29°46' W 095°06'0 0.0
2016-Dec-07 16:20N 29°46' W 095°06'0 0.0
2016-Dec-07 15:33N 29°46' W 095°06'3 1.5
2016-Dec-07 13:25N 29°44' W 095°03'2 0.5
2016-Dec-07 09:25N 29°42' W 095°03'1 1.7
2016-Dec-07 08:33N 29°44' W 095°03'0 0.1
2016-Dec-07 00:29N 29°44' W 095°03'0 0.0
2016-Dec-06 23:33N 29°44' W 095°03'2 1.8
2016-Dec-06 22:33N 29°43' W 095°01'1 1.5
2016-Dec-06 21:33N 29°42' W 095°03'0 0.0
2016-Dec-06 20:33N 29°42' W 095°03'0 0.0
2016-Dec-06 18:33N 29°42' W 095°03'0 0.0
2016-Dec-06 17:32N 29°42' W 095°03'0 0.0
2016-Dec-06 16:34N 29°42' W 095°03'0 0.0
2016-Dec-06 15:33N 29°42' W 095°03'0 0.0
2016-Dec-06 14:32N 29°42' W 095°03'0 0.0
2016-Dec-06 13:33N 29°42' W 095°03'0 0.0
2016-Dec-06 05:30N 29°43' W 095°03'3 3.2
2016-Dec-06 04:29N 29°45' W 095°04'2 0.3
2016-Dec-05 22:08N 29°45' W 095°06'0 0.0
2016-Dec-05 21:33N 29°45' W 095°06'0 0.0
2016-Dec-05 20:32N 29°45' W 095°06'0 0.0
2016-Dec-05 19:31N 29°45' W 095°06'1 1.5
2016-Dec-05 18:33N 29°46' W 095°04'4 4.4
2016-Dec-05 17:33N 29°42' W 095°01'1 1.4
2016-Dec-05 16:32N 29°42' W 095°03'0 0.0
2016-Dec-05 15:34N 29°42' W 095°03'0 0.0
2016-Dec-05 14:20N 29°42' W 095°03'1 0.0
2016-Dec-04 22:32N 29°42' W 095°02'4 4.2
2016-Dec-04 21:33N 29°45' W 095°06'0 0.1
2016-Dec-04 17:04N 29°45' W 095°06'3 5.5
2016-Dec-04 16:33N 29°44' W 095°03'1 1.5
2016-Dec-04 15:34N 29°43' W 095°03'4 3.9
2016-Dec-04 14:33N 29°46' W 095°05'4 0.3
2016-Dec-03 21:20N 29°45' W 095°10'6 6.6
2016-Dec-03 20:25N 29°44' W 095°03'2 1.9
2016-Dec-03 19:30N 29°42' W 095°03'0 0.0
2016-Dec-03 18:33N 29°42' W 095°03'0 0.0
2016-Dec-03 17:32N 29°42' W 095°03'0 0.0
2016-Dec-03 16:33N 29°42' W 095°03'0 0.0
2016-Dec-03 15:33N 29°42' W 095°03'0 0.0
2016-Dec-03 14:33N 29°42' W 095°03'0 0.0
2016-Dec-02 23:15N 29°42' W 095°03'0 0.0
2016-Dec-02 22:34N 29°42' W 095°03'0 0.0
2016-Dec-02 21:33N 29°42' W 095°03'0 0.0
2016-Dec-02 20:29N 29°42' W 095°03'0 0.0
2016-Dec-02 19:32N 29°42' W 095°03'0 0.0
2016-Dec-02 18:33N 29°42' W 095°03'0 0.0
2016-Dec-02 17:34N 29°42' W 095°03'0 0.0
2016-Dec-02 16:33N 29°42' W 095°03'0 0.0
2016-Dec-02 15:33N 29°42' W 095°03'0 0.0
2016-Dec-02 14:34N 29°42' W 095°03'0 0.0
2016-Dec-02 13:33N 29°42' W 095°03'  
Track history (hours):
 
Tides and Currents Weather Stations Pressure Air Temp Water Temp Dewpoint Dewpoint Depression Visibility Wind Speed Wind Dir Waves Ship Positions

Teddy Meyer

Owner: LeBeouf Bros. Towing, LLC, Houma, LA. More information available from US FCC via Universal Licensing System and Coast Guard Vessel Documentation Center.

Last reported at 2016-Dec-09 20:33 UTC. Time now 2016-Dec-09 21:20 UTC.
Position N 29°42' W 095°03'.

; draft 3 m.

MMSI: 367507220.

Date/timePositionNaut miles runAvg speedWind from/ knotsBaromVisibWave heightAir tempDewpointWater temp
2016-Dec-09 20:33N 29°42' W 095°03'0 0.0
2016-Dec-09 19:33N 29°42' W 095°03'0 0.1
2016-Dec-09 18:33N 29°42' W 095°03'0 0.1
2016-Dec-09 17:34N 29°42' W 095°03'0 0.0
2016-Dec-09 16:33N 29°42' W 095°03'0 0.0
2016-Dec-09 15:33N 29°42' W 095°03'0 0.0
2016-Dec-09 14:33N 29°42' W 095°03'0 0.0
2016-Dec-09 13:33N 29°42' W 095°03'0 0.0
2016-Dec-09 12:33N 29°42' W 095°03'0 0.0
2016-Dec-09 11:32N 29°42' W 095°03'0 0.1
2016-Dec-09 10:30N 29°43' W 095°03'1 1.4
2016-Dec-09 09:32N 29°43' W 095°01'5 0.5
2016-Dec-08 22:32N 29°45' W 095°06'5 5.3
2016-Dec-08 21:33N 29°42' W 095°01'1 1.5
2016-Dec-08 20:33N 29°42' W 095°03'0 0.0
2016-Dec-08 17:25N 29°42' W 095°03'1 0.1
2016-Dec-07 21:33N 29°43' W 095°01'5 2.3
2016-Dec-07 19:30N 29°45' W 095°06'0 0.4
2016-Dec-07 18:34N 29°45' W 095°07'2 1.2
2016-Dec-07 17:05N 29°46' W 095°06'0 0.0
2016-Dec-07 16:20N 29°46' W 095°06'0 0.0
2016-Dec-07 15:33N 29°46' W 095°06'3 1.5
2016-Dec-07 13:25N 29°44' W 095°03'2 0.5
2016-Dec-07 09:25N 29°42' W 095°03'1 1.7
2016-Dec-07 08:33N 29°44' W 095°03'0 0.1
2016-Dec-07 00:29N 29°44' W 095°03'0 0.0
2016-Dec-06 23:33N 29°44' W 095°03'2 1.8
2016-Dec-06 22:33N 29°43' W 095°01'1 1.5
2016-Dec-06 21:33N 29°42' W 095°03'0 0.0
2016-Dec-06 20:33N 29°42' W 095°03'0 0.0
2016-Dec-06 18:33N 29°42' W 095°03'0 0.0
2016-Dec-06 17:32N 29°42' W 095°03'0 0.0
2016-Dec-06 16:34N 29°42' W 095°03'0 0.0
2016-Dec-06 15:33N 29°42' W 095°03'0 0.0
2016-Dec-06 14:32N 29°42' W 095°03'0 0.0
2016-Dec-06 13:33N 29°42' W 095°03'0 0.0
2016-Dec-06 05:30N 29°43' W 095°03'3 3.2
2016-Dec-06 04:29N 29°45' W 095°04'2 0.3
2016-Dec-05 22:08N 29°45' W 095°06'0 0.0
2016-Dec-05 21:33N 29°45' W 095°06'0 0.0
2016-Dec-05 20:32N 29°45' W 095°06'0 0.0
2016-Dec-05 19:31N 29°45' W 095°06'1 1.5
2016-Dec-05 18:33N 29°46' W 095°04'4 4.4
2016-Dec-05 17:33N 29°42' W 095°01'1 1.4
2016-Dec-05 16:32N 29°42' W 095°03'0 0.0
2016-Dec-05 15:34N 29°42' W 095°03'0 0.0
2016-Dec-05 14:20N 29°42' W 095°03'1 0.0
2016-Dec-04 22:32N 29°42' W 095°02'4 4.2
2016-Dec-04 21:33N 29°45' W 095°06'0 0.1
2016-Dec-04 17:04N 29°45' W 095°06'3 5.5
2016-Dec-04 16:33N 29°44' W 095°03'1 1.5
2016-Dec-04 15:34N 29°43' W 095°03'4 3.9
2016-Dec-04 14:33N 29°46' W 095°05'4 0.3
2016-Dec-03 21:20N 29°45' W 095°10'6 6.6
2016-Dec-03 20:25N 29°44' W 095°03'2 1.9
2016-Dec-03 19:30N 29°42' W 095°03'0 0.0
2016-Dec-03 18:33N 29°42' W 095°03'0 0.0
2016-Dec-03 17:32N 29°42' W 095°03'0 0.0
2016-Dec-03 16:33N 29°42' W 095°03'0 0.0
2016-Dec-03 15:33N 29°42' W 095°03'0 0.0
2016-Dec-03 14:33N 29°42' W 095°03'0 0.0
2016-Dec-02 23:15N 29°42' W 095°03'0 0.0
2016-Dec-02 22:34N 29°42' W 095°03'0 0.0
2016-Dec-02 21:33N 29°42' W 095°03'0 0.0
2016-Dec-02 20:29N 29°42' W 095°03'0 0.0
2016-Dec-02 19:32N 29°42' W 095°03'0 0.0
2016-Dec-02 18:33N 29°42' W 095°03'0 0.0
2016-Dec-02 17:34N 29°42' W 095°03'0 0.0
2016-Dec-02 16:33N 29°42' W 095°03'0 0.0
2016-Dec-02 15:33N 29°42' W 095°03'0 0.0
2016-Dec-02 14:34N 29°42' W 095°03'0 0.0
2016-Dec-02 13:33N 29°42' W 095°03'  

Dump ship's entire track history